aviador You're here:

KMBY Decoded Metar

in
Report Time2018-04-27 03:15:00
UTC Time2018-04-27 03:08:33
Flight Rules vfr VFR
Wind240° at 05 kt
W.Decomp.*RWY 23: 4.9 kt HW 0.9 kt RCW
RWY 31: 1.7 kt HW 4.7 kt LCW
W.Rank240° ranks 18
Current wind is below 240° avg. (6.9)
Visibility9999 m
Phenomena:N/A
Clouds:N/A
Expected CloudBase > 5,200 ft AGL from Temp-Dew spread
CeilingNone
Temp14°C
Dew Point01°C (41% RH)
AAT10.4°C
QNH1014 hPa
Raw Report
KMBY 270315Z AUTO 24005KT 10SM CLR 14/01 A2994 RMK AO2=

Extra information for KMBY:More info

Social comments